createdAt,value
2019-04-26T00:02:47.732Z,14.36
2019-04-26T00:05:17.411Z,14.35
2019-04-26T00:07:48.208Z,14.30
2019-04-26T00:10:38.326Z,14.27
2019-04-26T00:13:22.595Z,14.26
2019-04-26T00:15:52.712Z,14.25
2019-04-26T00:18:22.795Z,14.21
2019-04-26T00:20:54.594Z,14.23
2019-04-26T00:23:24.423Z,14.20
2019-04-26T00:25:54.722Z,14.12
2019-04-26T00:28:24.468Z,14.07
2019-04-26T00:30:54.394Z,14.06
2019-04-26T00:33:24.694Z,14.09
2019-04-26T00:35:54.404Z,13.99
2019-04-26T00:38:24.216Z,13.96
2019-04-26T00:40:55.666Z,14.04
2019-04-26T00:43:26.837Z,13.95
2019-04-26T00:45:59.661Z,13.97
2019-04-26T00:48:32.023Z,13.93
2019-04-26T00:51:04.841Z,13.97
2019-04-26T00:53:37.228Z,13.93
2019-04-26T00:56:09.496Z,13.91
2019-04-26T00:58:40.735Z,13.94
2019-04-26T01:01:10.838Z,14.03
2019-04-26T01:03:40.930Z,13.95
2019-04-26T01:06:12.256Z,13.95
2019-04-26T01:08:42.071Z,13.91
2019-04-26T01:11:11.885Z,13.93
2019-04-26T01:13:41.683Z,13.88
2019-04-26T01:16:11.778Z,13.95
2019-04-26T01:18:43.533Z,13.92
2019-04-26T01:21:18.464Z,13.92
2019-04-26T01:23:51.966Z,13.92
2019-04-26T01:26:34.163Z,13.98
2019-04-26T01:29:11.273Z,14.01
2019-04-26T01:32:00.562Z,14.01
2019-04-26T01:34:31.668Z,14.05
2019-04-26T01:37:03.592Z,14.05
2019-04-26T01:39:35.634Z,14.00
2019-04-26T01:42:13.577Z,13.94
2019-04-26T01:44:55.300Z,13.90
2019-04-26T01:47:26.235Z,13.98
2019-04-26T01:49:56.807Z,13.99
2019-04-26T01:52:27.679Z,13.93
2019-04-26T01:54:57.462Z,13.96
2019-04-26T01:57:31.637Z,13.93
2019-04-26T02:00:03.240Z,13.98
2019-04-26T02:02:37.484Z,13.93
2019-04-26T02:05:09.658Z,13.94
2019-04-26T02:07:40.274Z,13.96
2019-04-26T02:10:23.545Z,13.96
2019-04-26T02:12:56.418Z,13.97
2019-04-26T02:15:31.271Z,13.97
2019-04-26T02:18:01.783Z,14.01
2019-04-26T02:20:58.521Z,13.95
2019-04-26T02:23:45.062Z,13.90
2019-04-26T02:26:35.616Z,13.89
2019-04-26T02:29:09.084Z,13.85
2019-04-26T02:31:41.825Z,13.89
2019-04-26T02:34:13.522Z,13.88
2019-04-26T02:36:57.033Z,13.91
2019-04-26T02:39:22.482Z,13.92
2019-04-26T02:41:56.853Z,13.95
2019-04-26T02:44:43.994Z,13.85
2019-04-26T02:47:39.187Z,13.85
2019-04-26T02:50:20.949Z,13.84
2019-04-26T02:53:04.210Z,13.81
2019-04-26T02:56:28.192Z,13.80
2019-04-26T02:59:02.993Z,13.76
2019-04-26T03:01:34.513Z,13.70
2019-04-26T03:04:04.919Z,13.71
2019-04-26T03:06:37.262Z,13.64
2019-04-26T03:09:08.306Z,13.54
2019-04-26T03:11:45.589Z,13.57
2019-04-26T03:14:21.476Z,13.60
2019-04-26T03:17:00.396Z,13.61
2019-04-26T03:19:44.973Z,13.57
2019-04-26T03:22:28.127Z,13.54
2019-04-26T03:25:02.466Z,13.54
2019-04-26T03:27:51.419Z,13.52
2019-04-26T03:30:39.022Z,13.56
2019-04-26T03:33:22.626Z,13.61
2019-04-26T03:36:14.987Z,13.53
2019-04-26T03:39:02.971Z,13.42
2019-04-26T03:42:15.558Z,13.30
2019-04-26T03:44:55.554Z,13.30
2019-04-26T03:47:35.608Z,13.25
2019-04-26T03:50:20.358Z,13.24
2019-04-26T03:53:05.124Z,13.22
2019-04-26T03:55:43.287Z,13.19
2019-04-26T03:58:38.520Z,13.17
2019-04-26T04:01:15.361Z,13.22
2019-04-26T04:03:56.904Z,13.21
2019-04-26T04:06:31.382Z,13.15
2019-04-26T04:09:10.056Z,13.18
2019-04-26T04:12:10.253Z,13.12
2019-04-26T04:15:00.636Z,13.16
2019-04-26T04:17:41.906Z,13.17
2019-04-26T04:20:25.492Z,13.16
2019-04-26T04:23:14.381Z,13.09
2019-04-26T04:25:56.948Z,13.09
2019-04-26T04:28:47.862Z,13.12
2019-04-26T04:31:41.715Z,13.16
2019-04-26T04:35:01.229Z,13.20
2019-04-26T04:37:52.234Z,13.11
2019-04-26T04:40:55.758Z,13.11
2019-04-26T04:43:34.253Z,13.12
2019-04-26T04:46:16.213Z,13.17
2019-04-26T04:49:07.140Z,13.08
2019-04-26T04:52:19.037Z,13.12
2019-04-26T04:55:07.110Z,13.16
2019-04-26T04:57:50.347Z,13.20
2019-04-26T05:00:51.351Z,13.25
2019-04-26T05:03:53.154Z,13.26
2019-04-26T05:06:34.792Z,13.28
2019-04-26T05:09:09.167Z,13.27
2019-04-26T05:12:01.643Z,13.29
2019-04-26T05:14:54.288Z,13.31
2019-04-26T05:17:46.192Z,13.31
2019-04-26T05:20:31.418Z,13.31
2019-04-26T05:23:37.524Z,13.34
2019-04-26T05:26:23.007Z,13.38
2019-04-26T05:29:17.201Z,13.40
2019-04-26T05:32:13.990Z,13.38
2019-04-26T05:35:18.254Z,13.36
2019-04-26T05:38:27.341Z,13.40
2019-04-26T05:41:20.307Z,13.40
2019-04-26T05:44:14.746Z,13.41
2019-04-26T05:47:13.347Z,13.40
2019-04-26T05:50:31.768Z,13.43
2019-04-26T05:53:31.781Z,13.42
2019-04-26T05:56:24.971Z,13.40
2019-04-26T05:59:11.429Z,13.42
2019-04-26T06:02:29.257Z,13.42
2019-04-26T06:05:38.349Z,13.42
2019-04-26T06:08:48.564Z,13.49
2019-04-26T06:11:26.921Z,13.46
2019-04-26T06:14:35.847Z,13.47
2019-04-26T06:17:26.650Z,13.48
2019-04-26T06:20:23.211Z,13.47
2019-04-26T06:23:14.028Z,13.49
2019-04-26T06:26:30.906Z,13.53
2019-04-26T06:29:40.104Z,13.61
2019-04-26T06:32:31.057Z,13.66
2019-04-26T06:35:08.237Z,13.63
2019-04-26T06:37:49.448Z,13.61
2019-04-26T06:40:26.672Z,13.60
2019-04-26T06:43:11.727Z,13.66
2019-04-26T06:46:02.660Z,13.71
2019-04-26T06:48:57.078Z,13.80
2019-04-26T06:51:58.790Z,13.72
2019-04-26T06:54:57.834Z,13.70
2019-04-26T06:57:36.587Z,13.67
2019-04-26T07:00:18.083Z,13.67
2019-04-26T07:03:13.670Z,13.61
2019-04-26T07:05:51.037Z,13.54
2019-04-26T07:08:57.070Z,13.41
2019-04-26T07:11:51.242Z,13.44
2019-04-26T07:14:59.483Z,13.58
2019-04-26T07:18:08.504Z,13.57
2019-04-26T07:21:00.475Z,13.74
2019-04-26T07:23:48.481Z,13.76
2019-04-26T07:26:39.123Z,13.80
2019-04-26T07:29:31.108Z,13.87
2019-04-26T07:32:05.383Z,13.86
2019-04-26T07:35:13.035Z,13.90
2019-04-26T07:38:47.431Z,13.98
2019-04-26T07:42:12.000Z,14.03
2019-04-26T07:44:53.750Z,13.96
2019-04-26T07:48:19.569Z,13.83
2019-04-26T07:51:32.201Z,13.82
2019-04-26T07:54:51.989Z,13.81
2019-04-26T07:57:42.134Z,13.71
2019-04-26T08:00:52.364Z,13.73
2019-04-26T08:03:34.115Z,13.71
2019-04-26T08:06:23.692Z,13.68
2019-04-26T08:08:57.974Z,13.76
2019-04-26T08:11:53.344Z,13.85
2019-04-26T08:14:27.757Z,13.81
2019-04-26T08:17:10.413Z,13.91
2019-04-26T08:19:57.546Z,14.18
2019-04-26T08:22:33.587Z,14.37
2019-04-26T08:25:06.841Z,14.65
2019-04-26T08:27:40.367Z,14.70
2019-04-26T08:30:19.139Z,14.87
2019-04-26T08:32:55.719Z,15.10
2019-04-26T08:35:29.943Z,15.24
2019-04-26T08:38:08.025Z,15.38
2019-04-26T08:40:38.142Z,15.56
2019-04-26T08:43:14.807Z,15.67
2019-04-26T08:46:01.794Z,15.77
2019-04-26T08:48:40.832Z,15.78
2019-04-26T08:51:20.509Z,15.90
2019-04-26T08:53:53.064Z,15.98
2019-04-26T08:56:39.156Z,15.85
2019-04-26T08:59:24.864Z,15.71
2019-04-26T09:02:14.754Z,15.87
2019-04-26T09:05:05.838Z,15.81
2019-04-26T09:07:38.967Z,15.87
2019-04-26T09:10:13.306Z,15.83
2019-04-26T09:12:47.240Z,15.75
2019-04-26T09:15:24.124Z,15.78
2019-04-26T09:17:54.061Z,15.62
2019-04-26T09:20:29.723Z,15.48
2019-04-26T09:23:08.852Z,15.44
2019-04-26T09:25:43.434Z,15.43
2019-04-26T09:28:18.607Z,15.38
2019-04-26T09:30:49.965Z,15.34
2019-04-26T09:33:23.935Z,15.38
2019-04-26T09:35:53.659Z,15.21
2019-04-26T09:38:23.474Z,15.17
2019-04-26T09:40:56.266Z,15.13
2019-04-26T09:43:28.980Z,15.08
2019-04-26T09:46:03.212Z,15.03
2019-04-26T09:48:36.827Z,15.05
2019-04-26T09:51:08.399Z,15.18
2019-04-26T09:53:39.486Z,15.14
2019-04-26T09:56:09.463Z,15.18
2019-04-26T09:58:39.141Z,15.29
2019-04-26T10:01:09.067Z,15.29
2019-04-26T10:03:38.741Z,15.39
2019-04-26T10:06:08.584Z,15.59
2019-04-26T10:08:38.265Z,15.68
2019-04-26T10:11:10.784Z,15.97
2019-04-26T10:13:48.166Z,16.03
2019-04-26T10:16:19.486Z,16.29
2019-04-26T10:18:50.904Z,16.33
2019-04-26T10:21:20.603Z,16.39
2019-04-26T10:23:50.272Z,16.34
2019-04-26T10:26:23.230Z,16.33
2019-04-26T10:28:52.179Z,16.43
2019-04-26T10:31:21.946Z,16.61
2019-04-26T10:33:51.720Z,16.55
2019-04-26T10:36:21.464Z,16.53
2019-04-26T10:38:54.475Z,16.54
2019-04-26T10:41:22.791Z,16.55
2019-04-26T10:43:52.457Z,16.57
2019-04-26T10:46:24.539Z,16.61
2019-04-26T10:48:53.627Z,16.72
2019-04-26T10:51:33.873Z,16.79
2019-04-26T10:54:07.970Z,16.80
2019-04-26T10:56:39.238Z,16.80
2019-04-26T10:59:09.896Z,16.79
2019-04-26T11:01:40.686Z,16.84
2019-04-26T11:04:10.424Z,16.93
2019-04-26T11:06:40.214Z,16.93
2019-04-26T11:09:10.679Z,16.91
2019-04-26T11:11:41.258Z,16.93
2019-04-26T11:14:11.146Z,16.95
2019-04-26T11:16:42.205Z,16.95
2019-04-26T11:19:12.110Z,17.01
2019-04-26T11:21:42.045Z,17.18
2019-04-26T11:24:15.184Z,17.37
2019-04-26T11:26:43.270Z,17.51
2019-04-26T11:29:13.219Z,17.62
2019-04-26T11:31:43.366Z,17.87
2019-04-26T11:34:13.079Z,18.06
2019-04-26T11:36:43.291Z,18.33
2019-04-26T11:39:14.951Z,18.28
2019-04-26T11:41:44.751Z,18.43
2019-04-26T11:44:14.593Z,18.35
2019-04-26T11:46:45.314Z,18.26
2019-04-26T11:49:15.277Z,18.21
2019-04-26T11:51:45.102Z,18.18
2019-04-26T11:54:17.098Z,18.13
2019-04-26T11:56:46.235Z,17.99
2019-04-26T11:59:15.971Z,17.98
2019-04-26T12:01:46.126Z,18.07
2019-04-26T12:04:23.510Z,18.06
2019-04-26T12:06:54.938Z,18.16
2019-04-26T12:09:38.122Z,18.07
2019-04-26T12:12:09.098Z,17.96
2019-04-26T12:14:39.531Z,17.92
2019-04-26T12:17:09.308Z,17.84
2019-04-26T12:19:39.203Z,17.79
2019-04-26T12:22:09.965Z,17.85
2019-04-26T12:24:39.820Z,18.01
2019-04-26T12:27:10.366Z,18.20
2019-04-26T12:29:40.332Z,18.26
2019-04-26T12:32:10.059Z,18.39
2019-04-26T12:34:39.875Z,18.62
2019-04-26T12:37:12.586Z,18.67
2019-04-26T12:39:41.246Z,18.60
2019-04-26T12:42:12.247Z,18.68
2019-04-26T12:44:50.699Z,18.52
2019-04-26T12:47:21.989Z,18.42
2019-04-26T12:49:54.530Z,18.51
2019-04-26T12:52:23.268Z,18.74
2019-04-26T12:54:52.945Z,18.95
2019-04-26T12:57:22.686Z,19.11
2019-04-26T12:59:52.394Z,19.16
2019-04-26T13:02:22.245Z,19.40
2019-04-26T13:04:51.949Z,19.46
2019-04-26T13:07:24.286Z,19.29
2019-04-26T13:10:01.059Z,19.22
2019-04-26T13:12:31.321Z,19.14
2019-04-26T13:15:26.342Z,19.33
2019-04-26T13:17:56.564Z,19.38
2019-04-26T13:20:28.759Z,19.11
2019-04-26T13:22:57.717Z,19.19
2019-04-26T13:25:39.845Z,19.09
2019-04-26T13:27:58.867Z,19.25
2019-04-26T13:30:33.095Z,19.40
2019-04-26T13:33:00.906Z,19.68
2019-04-26T13:35:30.652Z,19.71
2019-04-26T13:38:00.308Z,19.82
2019-04-26T13:40:30.544Z,19.83
2019-04-26T13:43:00.377Z,19.74
2019-04-26T13:45:30.425Z,19.61
2019-04-26T13:48:19.295Z,19.71
2019-04-26T13:50:50.690Z,19.98
2019-04-26T13:53:22.197Z,20.41
2019-04-26T13:55:51.819Z,20.62
2019-04-26T13:58:25.299Z,21.06
2019-04-26T14:00:53.187Z,21.14
2019-04-26T14:03:22.946Z,20.99
2019-04-26T14:05:52.761Z,21.13
2019-04-26T14:08:22.469Z,21.43
2019-04-26T14:10:52.462Z,21.82
2019-04-26T14:13:25.095Z,21.89
2019-04-26T14:15:53.911Z,22.12
2019-04-26T14:18:24.061Z,21.97
2019-04-26T14:20:58.857Z,21.67
2019-04-26T14:23:35.896Z,21.60
2019-04-26T14:26:07.379Z,21.30
2019-04-26T14:28:37.021Z,21.09
2019-04-26T14:31:06.966Z,20.66
2019-04-26T14:33:36.843Z,20.43
2019-04-26T14:36:17.118Z,20.27
2019-04-26T14:38:40.229Z,21.11
2019-04-26T14:41:13.124Z,21.79
2019-04-26T14:43:41.620Z,21.74
2019-04-26T14:46:14.733Z,21.26
2019-04-26T14:48:44.748Z,21.07
2019-04-26T14:51:16.881Z,21.10
2019-04-26T14:53:45.955Z,20.92
2019-04-26T14:56:15.671Z,20.64
2019-04-26T14:58:45.400Z,20.39
2019-04-26T15:01:16.830Z,20.22
2019-04-26T15:03:51.405Z,20.05
2019-04-26T15:06:26.589Z,19.81
2019-04-26T15:08:56.336Z,19.56
2019-04-26T15:11:26.030Z,19.42
2019-04-26T15:13:55.776Z,19.38
2019-04-26T15:16:25.598Z,19.43
2019-04-26T15:18:55.364Z,19.38
2019-04-26T15:21:27.440Z,19.28
2019-04-26T15:23:59.379Z,19.23
2019-04-26T15:26:29.963Z,19.28
2019-04-26T15:28:59.490Z,19.45
2019-04-26T15:31:29.288Z,19.67
2019-04-26T15:33:59.412Z,19.79
2019-04-26T15:36:29.115Z,19.84
2019-04-26T15:39:00.362Z,19.78
2019-04-26T15:41:40.457Z,19.69
2019-04-26T15:44:13.483Z,19.72
2019-04-26T15:46:48.627Z,19.60
2019-04-26T15:49:26.162Z,19.45
2019-04-26T15:51:59.518Z,19.07
2019-04-26T15:54:28.113Z,18.70
2019-04-26T15:56:58.331Z,18.38
2019-04-26T15:59:28.012Z,18.39
2019-04-26T16:01:57.800Z,18.30
2019-04-26T16:04:27.505Z,18.39
2019-04-26T16:06:57.606Z,18.49
2019-04-26T16:09:27.692Z,18.51
2019-04-26T16:11:57.486Z,18.53
2019-04-26T16:14:31.395Z,18.49
2019-04-26T16:17:03.154Z,18.50
2019-04-26T16:19:30.411Z,18.46
2019-04-26T16:22:00.131Z,18.38
2019-04-26T16:24:29.830Z,18.35
2019-04-26T16:26:59.574Z,18.29
2019-04-26T16:29:36.523Z,18.25
2019-04-26T16:32:26.423Z,18.23
2019-04-26T16:34:56.062Z,18.02
2019-04-26T16:37:25.881Z,17.84
2019-04-26T16:39:55.663Z,17.84
2019-04-26T16:42:25.515Z,17.80
2019-04-26T16:44:55.417Z,17.91
2019-04-26T16:47:25.319Z,17.89
2019-04-26T16:49:55.264Z,17.97
2019-04-26T16:52:25.096Z,18.00
2019-04-26T16:55:02.306Z,18.03
2019-04-26T16:57:26.692Z,18.13
2019-04-26T16:59:59.776Z,18.20
2019-04-26T17:02:28.180Z,18.30
2019-04-26T17:05:04.475Z,18.28
2019-04-26T17:07:29.462Z,18.23
2019-04-26T17:09:59.937Z,18.26
2019-04-26T17:12:29.860Z,18.19
2019-04-26T17:14:59.582Z,18.10
2019-04-26T17:17:30.696Z,18.12
2019-04-26T17:20:02.489Z,18.03
2019-04-26T17:22:44.676Z,18.04
2019-04-26T17:25:24.382Z,17.93
2019-04-26T17:27:50.106Z,17.84
2019-04-26T17:30:24.236Z,17.75
2019-04-26T17:32:55.368Z,17.69
2019-04-26T17:35:25.515Z,17.61
2019-04-26T17:37:57.366Z,17.51
2019-04-26T17:40:30.087Z,17.45
2019-04-26T17:43:00.421Z,17.30
2019-04-26T17:45:30.641Z,17.25
2019-04-26T17:48:01.427Z,17.12
2019-04-26T17:50:31.376Z,17.07
2019-04-26T17:53:01.351Z,16.92
2019-04-26T17:55:33.529Z,16.89
2019-04-26T17:58:12.435Z,16.88
2019-04-26T18:00:46.176Z,16.81
2019-04-26T18:03:13.118Z,16.81
2019-04-26T18:05:55.929Z,16.77
2019-04-26T18:08:33.100Z,16.66
2019-04-26T18:10:44.685Z,16.57
2019-04-26T18:13:16.247Z,16.50
2019-04-26T18:15:48.461Z,16.45
2019-04-26T18:18:18.941Z,16.47
2019-04-26T18:21:06.445Z,16.39
2019-04-26T18:23:36.165Z,16.36
2019-04-26T18:26:05.998Z,16.34
2019-04-26T18:28:35.974Z,16.33
2019-04-26T18:31:07.775Z,16.32
2019-04-26T18:33:37.576Z,16.30
2019-04-26T18:36:07.436Z,16.27
2019-04-26T18:38:37.215Z,16.20
2019-04-26T18:41:07.312Z,16.15
2019-04-26T18:43:37.066Z,16.15
2019-04-26T18:46:24.582Z,16.14
2019-04-26T18:48:54.492Z,16.11
2019-04-26T18:51:24.209Z,16.09
2019-04-26T18:54:14.517Z,16.05
2019-04-26T18:56:44.053Z,15.98
2019-04-26T18:59:15.541Z,15.89
2019-04-26T19:01:45.343Z,15.86
2019-04-26T19:04:15.744Z,15.85
2019-04-26T19:06:45.462Z,15.82
2019-04-26T19:09:17.438Z,15.76
2019-04-26T19:11:48.591Z,15.71
2019-04-26T19:14:48.860Z,15.70
2019-04-26T19:17:12.137Z,15.68
2019-04-26T19:19:43.529Z,15.57
2019-04-26T19:22:15.972Z,15.52
2019-04-26T19:24:44.825Z,15.44
2019-04-26T19:27:14.644Z,15.31
2019-04-26T19:29:44.376Z,15.23
2019-04-26T19:32:14.180Z,15.26
2019-04-26T19:34:43.983Z,15.20
2019-04-26T19:37:13.813Z,15.19
2019-04-26T19:39:43.514Z,15.16
2019-04-26T19:42:13.225Z,15.10
2019-04-26T19:44:43.070Z,15.04
2019-04-26T19:47:14.400Z,14.99
2019-04-26T19:49:48.818Z,14.93
2019-04-26T19:52:39.557Z,14.83
2019-04-26T19:55:11.358Z,14.82
2019-04-26T19:57:51.804Z,14.80
2019-04-26T20:00:22.406Z,14.84
2019-04-26T20:02:52.415Z,14.82
2019-04-26T20:05:22.606Z,14.83
2019-04-26T20:07:52.365Z,14.76
2019-04-26T20:10:23.264Z,14.68
2019-04-26T20:12:53.089Z,14.64
2019-04-26T20:15:27.936Z,14.58
2019-04-26T20:17:59.680Z,14.57
2019-04-26T20:20:27.865Z,14.49
2019-04-26T20:22:59.352Z,14.45
2019-04-26T20:25:29.968Z,14.44
2019-04-26T20:28:01.511Z,14.43
2019-04-26T20:30:51.477Z,14.39
2019-04-26T20:33:22.382Z,14.34
2019-04-26T20:35:52.154Z,14.32
2019-04-26T20:38:21.805Z,14.30
2019-04-26T20:40:53.316Z,14.28
2019-04-26T20:43:26.352Z,14.24
2019-04-26T20:46:11.048Z,14.22
2019-04-26T20:48:30.154Z,14.15
2019-04-26T20:50:57.264Z,14.09
2019-04-26T20:53:30.436Z,14.06
2019-04-26T20:55:58.661Z,14.02
2019-04-26T20:58:28.365Z,13.96
2019-04-26T21:00:58.499Z,13.95
2019-04-26T21:03:28.171Z,13.91
2019-04-26T21:05:59.282Z,13.96
2019-04-26T21:08:29.447Z,13.86
2019-04-26T21:11:00.173Z,13.80
2019-04-26T21:13:32.357Z,13.75
2019-04-26T21:16:03.613Z,13.76
2019-04-26T21:18:39.829Z,13.83
2019-04-26T21:21:05.855Z,13.72
2019-04-26T21:23:39.831Z,13.64
2019-04-26T21:26:16.226Z,13.69
2019-04-26T21:28:43.917Z,13.71
2019-04-26T21:31:20.985Z,13.66
2019-04-26T21:34:12.540Z,13.72
2019-04-26T21:36:57.914Z,13.74
2019-04-26T21:39:35.471Z,13.74
2019-04-26T21:42:12.789Z,13.75
2019-04-26T21:44:44.625Z,13.86
2019-04-26T21:47:13.996Z,13.87
2019-04-26T21:49:43.725Z,13.88
2019-04-26T21:52:13.743Z,13.89
2019-04-26T21:54:43.581Z,13.84
2019-04-26T21:57:13.249Z,13.87
2019-04-26T21:59:44.233Z,13.85
2019-04-26T22:02:14.202Z,13.75
2019-04-26T22:04:43.975Z,13.69
2019-04-26T22:07:14.608Z,13.67
2019-04-26T22:09:56.494Z,13.68
2019-04-26T22:12:27.219Z,13.70
2019-04-26T22:15:03.517Z,13.77
2019-04-26T22:17:40.465Z,13.79
2019-04-26T22:20:14.476Z,13.86
2019-04-26T22:23:00.341Z,13.82
2019-04-26T22:25:33.086Z,13.78
2019-04-26T22:28:03.333Z,13.69
2019-04-26T22:30:33.258Z,13.64
2019-04-26T22:33:03.200Z,13.62
2019-04-26T22:35:33.125Z,13.55
2019-04-26T22:38:04.029Z,13.52
2019-04-26T22:40:33.882Z,13.59
2019-04-26T22:43:16.393Z,13.67
2019-04-26T22:45:49.360Z,13.68
2019-04-26T22:48:35.281Z,13.73
2019-04-26T22:51:05.669Z,13.77
2019-04-26T22:53:35.431Z,13.79
2019-04-26T22:56:05.243Z,13.78
2019-04-26T22:58:34.926Z,13.79
2019-04-26T23:01:06.199Z,13.78
2019-04-26T23:03:36.639Z,13.83
2019-04-26T23:06:11.665Z,13.83
2019-04-26T23:08:39.907Z,13.84
2019-04-26T23:11:10.679Z,13.83
2019-04-26T23:13:44.981Z,13.83
2019-04-26T23:16:16.457Z,13.85
2019-04-26T23:18:59.770Z,13.86
2019-04-26T23:21:35.650Z,13.90
2019-04-26T23:24:05.124Z,13.91
2019-04-26T23:26:37.434Z,13.87
2019-04-26T23:29:08.626Z,13.85
2019-04-26T23:31:41.705Z,13.81
2019-04-26T23:34:09.553Z,13.84
2019-04-26T23:36:39.197Z,13.82
2019-04-26T23:39:12.260Z,13.82
2019-04-26T23:41:41.659Z,13.83
2019-04-26T23:44:13.248Z,13.77
2019-04-26T23:46:43.353Z,13.70
2019-04-26T23:49:14.488Z,13.70
2019-04-26T23:51:45.856Z,13.71
2019-04-26T23:54:15.720Z,13.70
2019-04-26T23:56:45.407Z,13.70
2019-04-26T23:59:20.703Z,13.68
